createdAt,value
2022-09-14T00:01:21.071Z,17.00
2022-09-14T00:03:49.109Z,17.00
2022-09-14T00:06:19.799Z,17.00
2022-09-14T00:08:53.141Z,16.90
2022-09-14T00:11:27.474Z,16.90
2022-09-14T00:13:59.801Z,16.90
2022-09-14T00:16:31.626Z,16.90
2022-09-14T00:19:05.848Z,16.90
2022-09-14T00:21:36.718Z,16.90
2022-09-14T00:24:08.604Z,16.90
2022-09-14T00:26:42.357Z,16.90
2022-09-14T00:29:13.894Z,16.90
2022-09-14T00:31:45.484Z,16.90
2022-09-14T00:34:17.626Z,16.90
2022-09-14T00:36:49.797Z,16.90
2022-09-14T00:39:21.958Z,16.90
2022-09-14T00:41:55.652Z,16.90
2022-09-14T00:44:42.215Z,16.90
2022-09-14T00:47:15.575Z,16.90
2022-09-14T00:49:47.074Z,16.90
2022-09-14T00:52:19.276Z,16.90
2022-09-14T00:54:51.632Z,16.90
2022-09-14T00:57:25.658Z,16.90
2022-09-14T00:59:57.384Z,16.90
2022-09-14T01:02:30.043Z,16.80
2022-09-14T01:05:01.268Z,16.90
2022-09-14T01:07:36.821Z,16.90
2022-09-14T01:10:14.559Z,16.90
2022-09-14T01:12:52.411Z,16.80
2022-09-14T01:15:25.197Z,16.80
2022-09-14T01:17:59.482Z,16.80
2022-09-14T01:20:32.565Z,16.80
2022-09-14T01:23:08.555Z,16.80
2022-09-14T01:25:48.591Z,16.80
2022-09-14T01:28:25.408Z,16.80
2022-09-14T01:30:57.528Z,16.80
2022-09-14T01:33:31.082Z,16.80
2022-09-14T01:36:04.113Z,16.80
2022-09-14T01:38:36.732Z,16.80
2022-09-14T01:41:10.052Z,16.80
2022-09-14T01:43:44.123Z,16.80
2022-09-14T01:46:18.423Z,16.80
2022-09-14T01:48:52.583Z,16.70
2022-09-14T01:51:34.487Z,16.70
2022-09-14T01:54:08.631Z,16.70
2022-09-14T01:56:41.694Z,16.70
2022-09-14T01:59:18.261Z,16.70
2022-09-14T02:01:53.338Z,16.70
2022-09-14T02:04:27.604Z,16.70
2022-09-14T02:06:59.417Z,16.70
2022-09-14T02:09:30.284Z,16.70
2022-09-14T02:12:01.444Z,16.70
2022-09-14T02:14:34.924Z,16.70
2022-09-14T02:17:08.429Z,16.70
2022-09-14T02:19:40.603Z,16.70
2022-09-14T02:22:11.758Z,16.70
2022-09-14T02:24:42.557Z,16.70
2022-09-14T02:27:13.687Z,16.70
2022-09-14T02:29:47.128Z,16.60
2022-09-14T02:32:24.125Z,16.60
2022-09-14T02:34:57.795Z,16.60
2022-09-14T02:37:32.834Z,16.60
2022-09-14T02:40:07.570Z,16.60
2022-09-14T02:42:42.232Z,16.60
2022-09-14T02:45:23.208Z,16.60
2022-09-14T02:47:58.247Z,16.60
2022-09-14T02:50:32.244Z,16.60
2022-09-14T02:53:07.821Z,16.60
2022-09-14T02:55:40.137Z,16.50
2022-09-14T02:58:12.503Z,16.50
2022-09-14T03:00:47.633Z,16.60
2022-09-14T03:03:19.671Z,16.50
2022-09-14T03:05:50.406Z,16.50
2022-09-14T03:08:21.544Z,16.50
2022-09-14T03:10:52.323Z,16.50
2022-09-14T03:13:23.337Z,16.50
2022-09-14T03:15:56.685Z,16.50
2022-09-14T03:18:27.792Z,16.50
2022-09-14T03:21:05.076Z,16.50
2022-09-14T03:23:38.510Z,16.50
2022-09-14T03:26:10.284Z,16.40
2022-09-14T03:28:41.548Z,16.40
2022-09-14T03:31:15.741Z,16.40
2022-09-14T03:33:46.911Z,16.40
2022-09-14T03:36:18.564Z,16.40
2022-09-14T03:38:50.270Z,16.40
2022-09-14T03:41:21.320Z,16.50
2022-09-14T03:43:52.303Z,16.40
2022-09-14T03:46:26.913Z,16.40
2022-09-14T03:48:58.545Z,16.40
2022-09-14T03:51:29.521Z,16.40
2022-09-14T03:54:00.502Z,16.40
2022-09-14T03:56:31.256Z,16.40
2022-09-14T03:59:02.436Z,16.40
2022-09-14T04:01:35.862Z,16.40
2022-09-14T04:04:07.006Z,16.30
2022-09-14T04:06:37.772Z,16.30
2022-09-14T04:09:08.933Z,16.30
2022-09-14T04:11:39.677Z,16.30
2022-09-14T04:14:10.743Z,16.30
2022-09-14T04:16:44.939Z,16.30
2022-09-14T04:19:16.021Z,16.30
2022-09-14T04:21:47.234Z,16.30
2022-09-14T04:24:18.613Z,16.30
2022-09-14T04:26:49.620Z,16.30
2022-09-14T04:29:20.654Z,16.30
2022-09-14T04:31:54.040Z,16.30
2022-09-14T04:34:25.054Z,16.30
2022-09-14T04:36:57.130Z,16.30
2022-09-14T04:39:28.511Z,16.30
2022-09-14T04:41:59.287Z,16.30
2022-09-14T04:44:30.321Z,16.30
2022-09-14T04:47:03.745Z,16.20
2022-09-14T04:49:35.069Z,16.20
2022-09-14T04:52:06.135Z,16.20
2022-09-14T04:54:37.205Z,16.20
2022-09-14T04:57:08.262Z,16.20
2022-09-14T04:59:39.414Z,16.20
2022-09-14T05:02:12.867Z,16.20
2022-09-14T05:04:44.039Z,16.20
2022-09-14T05:07:14.926Z,16.20
2022-09-14T05:09:46.044Z,16.20
2022-09-14T05:12:16.664Z,16.20
2022-09-14T05:14:47.971Z,16.20
2022-09-14T05:17:21.423Z,16.20
2022-09-14T05:19:52.521Z,16.20
2022-09-14T05:22:23.904Z,16.20
2022-09-14T05:24:55.040Z,16.20
2022-09-14T05:27:25.836Z,16.20
2022-09-14T05:29:57.042Z,16.20
2022-09-14T05:32:30.320Z,16.20
2022-09-14T05:35:01.456Z,16.20
2022-09-14T05:37:32.171Z,16.20
2022-09-14T05:40:04.674Z,16.20
2022-09-14T05:42:35.433Z,16.20
2022-09-14T05:45:06.674Z,16.20
2022-09-14T05:47:40.159Z,16.20
2022-09-14T05:50:12.043Z,16.20
2022-09-14T05:52:43.023Z,16.20
2022-09-14T05:55:14.014Z,16.30
2022-09-14T05:57:45.083Z,16.30
2022-09-14T06:00:17.200Z,16.30
2022-09-14T06:02:52.120Z,16.30
2022-09-14T06:05:25.515Z,16.30
2022-09-14T06:07:56.373Z,16.40
2022-09-14T06:10:29.672Z,16.40
2022-09-14T06:13:02.231Z,16.40
2022-09-14T06:15:33.533Z,16.50
2022-09-14T06:18:06.920Z,16.50
2022-09-14T06:20:38.011Z,16.50
2022-09-14T06:23:08.709Z,16.60
2022-09-14T06:25:39.739Z,16.60
2022-09-14T06:28:10.493Z,16.70
2022-09-14T06:30:44.860Z,16.70
2022-09-14T06:33:18.182Z,16.70
2022-09-14T06:35:57.165Z,16.80
2022-09-14T06:38:28.097Z,16.80
2022-09-14T06:40:59.841Z,16.90
2022-09-14T06:43:31.785Z,16.90
2022-09-14T06:46:04.332Z,16.90
2022-09-14T06:48:38.551Z,17.00
2022-09-14T06:51:18.341Z,17.00
2022-09-14T06:53:49.737Z,17.00
2022-09-14T06:56:21.325Z,17.10
2022-09-14T06:58:53.383Z,17.10
2022-09-14T07:01:26.113Z,17.10
2022-09-14T07:04:01.074Z,17.20
2022-09-14T07:06:33.431Z,17.20
2022-09-14T07:09:06.459Z,17.30
2022-09-14T07:11:38.597Z,17.30
2022-09-14T07:14:09.723Z,17.30
2022-09-14T07:16:41.528Z,17.40
2022-09-14T07:19:16.311Z,17.40
2022-09-14T07:21:50.163Z,17.50
2022-09-14T07:24:20.996Z,17.50
2022-09-14T07:26:52.070Z,17.50
2022-09-14T07:29:23.055Z,17.50
2022-09-14T07:31:54.996Z,17.50
2022-09-14T07:34:28.350Z,17.60
2022-09-14T07:36:59.374Z,17.60
2022-09-14T07:39:30.190Z,17.70
2022-09-14T07:42:01.253Z,17.70
2022-09-14T07:44:32.027Z,17.70
2022-09-14T07:47:03.088Z,17.70
2022-09-14T07:49:36.383Z,17.70
2022-09-14T07:52:09.518Z,17.80
2022-09-14T07:54:40.547Z,17.80
2022-09-14T07:57:11.618Z,17.90
2022-09-14T07:59:42.406Z,17.90
2022-09-14T08:02:14.104Z,17.90
2022-09-14T08:04:48.203Z,17.90
2022-09-14T08:07:19.179Z,17.90
2022-09-14T08:09:50.346Z,18.00
2022-09-14T08:12:21.548Z,18.00
2022-09-14T08:14:53.757Z,18.00
2022-09-14T08:17:25.394Z,18.00
2022-09-14T08:19:58.596Z,18.00
2022-09-14T08:22:29.611Z,18.00
2022-09-14T08:25:00.416Z,18.10
2022-09-14T08:27:31.437Z,18.10
2022-09-14T08:30:02.007Z,18.10
2022-09-14T08:32:33.145Z,18.20
2022-09-14T08:35:07.310Z,18.20
2022-09-14T08:37:38.113Z,18.20
2022-09-14T08:40:12.063Z,18.20
2022-09-14T08:42:43.245Z,18.20
2022-09-14T08:45:16.691Z,18.30
2022-09-14T08:47:47.495Z,18.30
2022-09-14T08:50:22.125Z,18.30
2022-09-14T08:52:54.101Z,18.30
2022-09-14T08:55:32.823Z,18.40
2022-09-14T08:58:05.764Z,18.40
2022-09-14T09:00:42.446Z,18.40
2022-09-14T09:03:27.179Z,18.50
2022-09-14T09:06:05.270Z,18.50
2022-09-14T09:08:42.267Z,18.50
2022-09-14T09:11:16.896Z,18.50
2022-09-14T09:13:48.944Z,18.60
2022-09-14T09:16:21.513Z,18.60
2022-09-14T09:18:54.444Z,18.60
2022-09-14T09:21:29.961Z,18.60
2022-09-14T09:24:07.169Z,18.70
2022-09-14T09:26:39.119Z,18.70
2022-09-14T09:29:12.274Z,18.70
2022-09-14T09:32:02.291Z,18.80
2022-09-14T09:34:51.733Z,18.80
2022-09-14T09:37:42.557Z,18.80
2022-09-14T09:40:18.131Z,18.90
2022-09-14T09:43:04.411Z,18.90
2022-09-14T09:45:49.964Z,18.90
2022-09-14T09:48:22.266Z,18.90
2022-09-14T09:50:54.714Z,19.00
2022-09-14T09:53:28.491Z,19.00
2022-09-14T09:56:00.280Z,19.10
2022-09-14T09:58:32.909Z,19.00
2022-09-14T10:01:07.710Z,19.10
2022-09-14T10:03:42.071Z,19.10
2022-09-14T10:06:14.986Z,19.10
2022-09-14T10:08:49.539Z,19.20
2022-09-14T10:11:31.726Z,19.20
2022-09-14T10:14:02.818Z,19.20
2022-09-14T10:16:36.477Z,19.20
2022-09-14T10:19:15.390Z,19.30
2022-09-14T10:22:00.912Z,19.30
2022-09-14T10:24:34.988Z,19.30
2022-09-14T10:27:05.870Z,19.30
2022-09-14T10:29:40.923Z,19.40
2022-09-14T10:32:20.003Z,19.40
2022-09-14T10:34:51.284Z,19.40
2022-09-14T10:37:28.535Z,19.40
2022-09-14T10:40:11.028Z,19.40
2022-09-14T10:42:43.348Z,19.50
2022-09-14T10:45:20.520Z,19.50
2022-09-14T10:48:06.463Z,19.50
2022-09-14T10:50:48.213Z,19.50
2022-09-14T10:53:23.627Z,19.60
2022-09-14T10:56:02.020Z,19.60
2022-09-14T10:58:39.843Z,19.60
2022-09-14T11:01:20.327Z,19.60
2022-09-14T11:03:57.342Z,19.60
2022-09-14T11:06:35.536Z,19.60
2022-09-14T11:09:09.402Z,19.60
2022-09-14T11:11:50.257Z,19.60
2022-09-14T11:14:28.840Z,19.60
2022-09-14T11:17:06.486Z,19.60
2022-09-14T11:19:42.708Z,19.60
2022-09-14T11:22:18.303Z,19.70
2022-09-14T11:24:52.710Z,19.60
2022-09-14T11:27:29.843Z,19.60
2022-09-14T11:30:02.989Z,19.70
2022-09-14T11:32:36.522Z,19.60
2022-09-14T11:35:14.894Z,19.70
2022-09-14T11:37:48.462Z,19.70
2022-09-14T11:40:21.862Z,19.70
2022-09-14T11:42:59.892Z,19.70
2022-09-14T11:45:32.879Z,19.70
2022-09-14T11:48:41.269Z,19.60
2022-09-14T11:51:06.878Z,19.60
2022-09-14T11:53:39.014Z,19.60
2022-09-14T11:56:17.082Z,19.60
2022-09-14T11:58:52.353Z,19.60
2022-09-14T12:01:44.013Z,19.60
2022-09-14T12:04:17.375Z,19.60
2022-09-14T12:06:50.525Z,19.60
2022-09-14T12:09:34.417Z,19.60
2022-09-14T12:12:08.554Z,19.60
2022-09-14T12:14:44.710Z,19.50
2022-09-14T12:20:24.423Z,19.50
2022-09-14T12:22:55.263Z,19.40
2022-09-14T12:25:29.304Z,19.40
2022-09-14T12:28:00.181Z,19.40
2022-09-14T12:31:00.113Z,19.40
2022-09-14T12:33:46.336Z,19.40
2022-09-14T12:36:32.111Z,19.30
2022-09-14T12:39:10.454Z,19.30
2022-09-14T12:41:59.357Z,19.30
2022-09-14T12:44:34.123Z,19.30
2022-09-14T12:47:20.073Z,19.20
2022-09-14T12:49:53.743Z,19.20
2022-09-14T12:52:33.530Z,19.20
2022-09-14T12:55:10.601Z,19.20
2022-09-14T12:57:46.080Z,19.10
2022-09-14T13:00:19.989Z,19.10
2022-09-14T13:03:18.100Z,19.10
2022-09-14T13:05:51.682Z,19.10
2022-09-14T13:08:25.242Z,19.10
2022-09-14T13:10:56.329Z,19.10
2022-09-14T13:13:29.911Z,19.10
2022-09-14T13:16:01.770Z,19.10
2022-09-14T13:18:34.372Z,19.00
2022-09-14T13:21:20.652Z,19.00
2022-09-14T13:23:51.912Z,19.00
2022-09-14T13:26:23.697Z,18.90
2022-09-14T13:28:55.674Z,18.90
2022-09-14T13:31:30.082Z,19.00
2022-09-14T13:34:03.066Z,19.00
2022-09-14T13:36:37.560Z,19.00
2022-09-14T13:39:26.377Z,18.90
2022-09-14T13:41:58.520Z,18.90
2022-09-14T13:44:32.193Z,18.90
2022-09-14T13:47:04.781Z,18.90
2022-09-14T13:49:37.569Z,18.80
2022-09-14T13:52:31.053Z,18.80
2022-09-14T13:55:20.598Z,18.80
2022-09-14T13:58:06.358Z,18.90
2022-09-14T14:00:49.454Z,18.90
2022-09-14T14:03:27.265Z,18.90
2022-09-14T14:05:58.552Z,18.90
2022-09-14T14:08:32.069Z,18.80
2022-09-14T14:11:07.102Z,18.80
2022-09-14T14:13:38.779Z,18.80
2022-09-14T14:16:17.448Z,18.80
2022-09-14T14:18:53.255Z,18.80
2022-09-14T14:21:31.801Z,18.80
2022-09-14T14:24:17.641Z,18.80
2022-09-14T14:26:55.593Z,18.80
2022-09-14T14:29:26.883Z,18.80
2022-09-14T14:31:58.756Z,18.90
2022-09-14T14:34:30.408Z,18.90
2022-09-14T14:37:02.865Z,18.90
2022-09-14T14:39:33.702Z,18.80
2022-09-14T14:42:07.897Z,18.90
2022-09-14T14:44:38.736Z,18.80
2022-09-14T14:47:10.011Z,18.90
2022-09-14T14:50:01.324Z,18.90
2022-09-14T14:52:32.717Z,18.90
2022-09-14T14:55:03.483Z,18.80
2022-09-14T14:57:37.430Z,18.90
2022-09-14T15:00:09.923Z,18.80
2022-09-14T15:02:41.433Z,18.90
2022-09-14T15:05:13.011Z,18.80
2022-09-14T15:07:44.106Z,18.80
2022-09-14T15:10:16.313Z,18.80
2022-09-14T15:12:50.116Z,18.80
2022-09-14T15:15:22.025Z,18.80
2022-09-14T15:17:53.322Z,18.70
2022-09-14T15:20:24.319Z,18.70
2022-09-14T15:22:55.588Z,18.70
2022-09-14T15:25:26.719Z,18.70
2022-09-14T15:28:00.499Z,18.70
2022-09-14T15:30:31.402Z,18.70
2022-09-14T15:33:02.363Z,18.70
2022-09-14T15:35:33.169Z,18.70
2022-09-14T15:38:04.191Z,18.70
2022-09-14T15:40:35.332Z,18.70
2022-09-14T15:43:09.224Z,18.70
2022-09-14T15:45:40.070Z,18.60
2022-09-14T15:48:13.591Z,18.70
2022-09-14T15:50:44.885Z,18.70
2022-09-14T15:53:16.678Z,18.60
2022-09-14T15:55:48.468Z,18.60
2022-09-14T15:58:22.151Z,18.60
2022-09-14T16:00:53.037Z,18.60
2022-09-14T16:03:24.151Z,18.60
2022-09-14T16:05:55.135Z,18.50
2022-09-14T16:08:27.674Z,18.50
2022-09-14T16:11:00.899Z,18.60
2022-09-14T16:13:35.302Z,18.60
2022-09-14T16:16:07.255Z,18.50
2022-09-14T16:18:39.126Z,18.60
2022-09-14T16:21:11.121Z,18.60
2022-09-14T16:23:43.635Z,18.50
2022-09-14T16:26:15.787Z,18.50
2022-09-14T16:28:50.155Z,18.50
2022-09-14T16:31:23.681Z,18.50
2022-09-14T16:33:56.064Z,18.50
2022-09-14T16:36:28.045Z,18.50
2022-09-14T16:39:00.274Z,18.50
2022-09-14T16:41:31.958Z,18.50
2022-09-14T16:44:07.171Z,18.50
2022-09-14T16:46:38.306Z,18.40
2022-09-14T16:49:09.693Z,18.40
2022-09-14T16:51:41.216Z,18.40
2022-09-14T16:54:13.346Z,18.40
2022-09-14T16:56:44.270Z,18.40
2022-09-14T16:59:19.609Z,18.40
2022-09-14T17:01:54.669Z,18.40
2022-09-14T17:04:27.786Z,18.40
2022-09-14T17:06:59.061Z,18.30
2022-09-14T17:09:33.229Z,18.30
2022-09-14T17:12:04.886Z,18.30
2022-09-14T17:14:39.062Z,18.30
2022-09-14T17:17:10.302Z,18.30
2022-09-14T17:19:43.672Z,18.30
2022-09-14T17:22:15.113Z,18.30
2022-09-14T17:24:46.794Z,18.30
2022-09-14T17:27:19.188Z,18.30
2022-09-14T17:29:53.468Z,18.20
2022-09-14T17:32:25.153Z,18.20
2022-09-14T17:34:56.727Z,18.20
2022-09-14T17:37:28.343Z,18.20
2022-09-14T17:39:59.932Z,18.20
2022-09-14T17:42:31.508Z,18.10
2022-09-14T17:45:06.836Z,18.10
2022-09-14T17:47:42.263Z,18.20
2022-09-14T17:50:14.223Z,18.10
2022-09-14T17:52:47.954Z,18.10
2022-09-14T17:55:19.881Z,18.10
2022-09-14T17:57:51.076Z,18.10
2022-09-14T18:00:25.193Z,18.10
2022-09-14T18:02:56.590Z,18.10
2022-09-14T18:05:28.630Z,18.10
2022-09-14T18:07:59.790Z,18.10
2022-09-14T18:10:31.249Z,18.10
2022-09-14T18:13:02.603Z,18.10
2022-09-14T18:15:40.379Z,18.10
2022-09-14T18:18:12.108Z,18.10
2022-09-14T18:20:43.532Z,18.10
2022-09-14T18:23:14.918Z,18.00
2022-09-14T18:25:46.438Z,18.00
2022-09-14T18:28:17.865Z,18.10
2022-09-14T18:30:52.274Z,18.10
2022-09-14T18:33:23.501Z,18.00
2022-09-14T18:35:56.066Z,18.00
2022-09-14T18:38:27.582Z,18.00
2022-09-14T18:40:59.159Z,18.00
2022-09-14T18:43:30.425Z,18.00
2022-09-14T18:46:07.860Z,18.00
2022-09-14T18:48:39.220Z,18.00
2022-09-14T18:51:11.070Z,18.00
2022-09-14T18:53:42.777Z,18.00
2022-09-14T18:56:17.005Z,18.00
2022-09-14T18:58:49.608Z,18.00
2022-09-14T19:01:24.125Z,18.00
2022-09-14T19:03:56.841Z,18.00
2022-09-14T19:06:28.399Z,18.00
2022-09-14T19:09:02.645Z,18.00
2022-09-14T19:11:35.531Z,17.90
2022-09-14T19:14:10.524Z,17.90
2022-09-14T19:16:45.224Z,17.90
2022-09-14T19:19:17.709Z,17.90
2022-09-14T19:21:49.624Z,17.90
2022-09-14T19:24:21.200Z,18.00
2022-09-14T19:26:53.996Z,17.90
2022-09-14T19:29:26.457Z,18.00
2022-09-14T19:32:00.956Z,17.90
2022-09-14T19:34:32.053Z,17.90
2022-09-14T19:37:03.438Z,17.90
2022-09-14T19:39:37.440Z,17.90
2022-09-14T19:42:09.030Z,17.90
2022-09-14T19:44:40.276Z,17.90
2022-09-14T19:47:14.339Z,17.90
2022-09-14T19:49:45.334Z,17.90
2022-09-14T19:52:16.642Z,17.90
2022-09-14T19:54:47.452Z,17.90
2022-09-14T19:57:18.580Z,17.80
2022-09-14T19:59:49.271Z,17.90
2022-09-14T20:02:23.136Z,17.80
2022-09-14T20:04:54.178Z,17.90
2022-09-14T20:07:26.407Z,17.80
2022-09-14T20:09:57.243Z,17.80
2022-09-14T20:12:28.247Z,17.80
2022-09-14T20:14:59.293Z,17.80
2022-09-14T20:17:33.047Z,17.80
2022-09-14T20:20:03.961Z,17.80
2022-09-14T20:22:35.013Z,17.80
2022-09-14T20:25:06.538Z,17.90
2022-09-14T20:27:37.639Z,17.80
2022-09-14T20:30:09.668Z,17.80
2022-09-14T20:32:43.521Z,17.80
2022-09-14T20:35:14.417Z,17.80
2022-09-14T20:37:45.692Z,17.80
2022-09-14T20:40:16.637Z,17.80
2022-09-14T20:42:47.736Z,17.80
2022-09-14T20:45:21.589Z,17.70
2022-09-14T20:47:55.209Z,17.70
2022-09-14T20:50:26.051Z,17.80
2022-09-14T20:52:57.089Z,17.70
2022-09-14T20:55:27.879Z,17.80
2022-09-14T20:57:59.053Z,17.80
2022-09-14T21:00:29.968Z,17.80
2022-09-14T21:03:03.627Z,17.80
2022-09-14T21:05:34.383Z,17.80
2022-09-14T21:08:05.825Z,17.70
2022-09-14T21:10:45.568Z,17.70
2022-09-14T21:13:17.810Z,17.70
2022-09-14T21:15:49.073Z,17.70
2022-09-14T21:18:22.927Z,17.80
2022-09-14T21:20:53.934Z,17.80
2022-09-14T21:23:25.033Z,17.80
2022-09-14T21:25:59.194Z,17.70
2022-09-14T21:28:30.667Z,17.80
2022-09-14T21:31:08.453Z,17.80
2022-09-14T21:33:42.765Z,17.80
2022-09-14T21:36:14.503Z,17.70
2022-09-14T21:38:45.662Z,17.80
2022-09-14T21:41:16.490Z,17.70
2022-09-14T21:43:47.796Z,17.80
2022-09-14T21:46:19.254Z,17.70
2022-09-14T21:48:54.177Z,17.70
2022-09-14T21:51:25.950Z,17.70
2022-09-14T21:53:58.544Z,17.70
2022-09-14T21:56:30.671Z,17.70
2022-09-14T21:59:02.706Z,17.70
2022-09-14T22:01:34.004Z,17.70
2022-09-14T22:04:09.241Z,17.70
2022-09-14T22:06:40.383Z,17.70
2022-09-14T22:09:11.517Z,17.70
2022-09-14T22:11:42.346Z,17.70
2022-09-14T22:14:14.726Z,17.70
2022-09-14T22:16:46.009Z,17.70
2022-09-14T22:19:20.899Z,17.70
2022-09-14T22:22:11.544Z,17.70
2022-09-14T22:24:43.466Z,17.70
2022-09-14T22:27:14.433Z,17.70
2022-09-14T22:29:45.662Z,17.70
2022-09-14T22:32:16.529Z,17.70
2022-09-14T22:34:50.875Z,17.70
2022-09-14T22:37:21.684Z,17.70
2022-09-14T22:39:52.709Z,17.70
2022-09-14T22:42:24.093Z,17.70
2022-09-14T22:44:55.250Z,17.70
2022-09-14T22:47:26.363Z,17.70
2022-09-14T22:50:00.147Z,17.70
2022-09-14T22:52:30.938Z,17.70
2022-09-14T22:55:02.086Z,17.70
2022-09-14T22:57:32.863Z,17.70
2022-09-14T23:00:03.958Z,17.70
2022-09-14T23:02:34.872Z,17.70
2022-09-14T23:05:09.407Z,17.70
2022-09-14T23:07:40.057Z,17.70
2022-09-14T23:10:11.627Z,17.70
2022-09-14T23:12:42.416Z,17.70
2022-09-14T23:15:13.891Z,17.70
2022-09-14T23:17:47.713Z,17.70
2022-09-14T23:20:24.997Z,17.70
2022-09-14T23:22:55.824Z,17.70
2022-09-14T23:25:27.006Z,17.70
2022-09-14T23:27:57.809Z,17.60
2022-09-14T23:30:28.878Z,17.60
2022-09-14T23:33:00.059Z,17.70
2022-09-14T23:35:37.463Z,17.70
2022-09-14T23:38:08.651Z,17.70
2022-09-14T23:40:39.751Z,17.70
2022-09-14T23:43:10.615Z,17.60
2022-09-14T23:45:41.640Z,17.60
2022-09-14T23:48:12.494Z,17.60
2022-09-14T23:50:46.109Z,17.70
2022-09-14T23:53:17.041Z,17.60
2022-09-14T23:55:48.005Z,17.60
2022-09-14T23:58:18.787Z,17.60
